Terminal Aerodrome Forecast
Issued by NWS Charleston, WV

Current Version | Previous Version | Text Only | Print | Product List | Glossary Off
Versions: 1 2 3 4 5 6 7 8 9 10 11 12 13 14 15 16 17 18 19 20 21 22

000
FTUS41 KRLX 020916 AAA
TAFCRW
TAF AMD
KCRW 020916Z 0209/0306 00000KT 6SM BR SCT250
     FM021000 00000KT 3SM BR SCT001
     FM021300 22004KT P6SM SCT250=

USA.gov is the U.S. government's official web portal to all federal, state and local government web resources and services.